sensor_id;sensor_type;location;lat;lon;timestamp;P1;durP1;ratioP1;P2;durP2;ratioP2
46765;SDS011;32527;51.986;5.842;2023-08-08T00:02:21;11.50;;;9.00;;
46765;SDS011;32527;51.986;5.842;2023-08-08T00:04:48;10.65;;;8.95;;
46765;SDS011;32527;51.986;5.842;2023-08-08T00:07:15;13.40;;;9.38;;
46765;SDS011;32527;51.986;5.842;2023-08-08T00:09:41;11.65;;;10.38;;
46765;SDS011;32527;51.986;5.842;2023-08-08T00:12:07;16.23;;;9.45;;
46765;SDS011;32527;51.986;5.842;2023-08-08T00:14:33;12.07;;;8.48;;
46765;SDS011;32527;51.986;5.842;2023-08-08T00:16:59;11.32;;;9.13;;
46765;SDS011;32527;51.986;5.842;2023-08-08T00:19:25;13.57;;;10.95;;
46765;SDS011;32527;51.986;5.842;2023-08-08T00:21:51;14.23;;;10.30;;
46765;SDS011;32527;51.986;5.842;2023-08-08T00:24:17;12.07;;;9.40;;
46765;SDS011;32527;51.986;5.842;2023-08-08T00:26:43;13.55;;;10.93;;
46765;SDS011;32527;51.986;5.842;2023-08-08T00:29:10;13.75;;;10.23;;
46765;SDS011;32527;51.986;5.842;2023-08-08T00:31:36;10.40;;;9.40;;
46765;SDS011;32527;51.986;5.842;2023-08-08T00:34:02;12.35;;;10.85;;
46765;SDS011;32527;51.986;5.842;2023-08-08T00:36:28;11.48;;;10.23;;
46765;SDS011;32527;51.986;5.842;2023-08-08T00:38:54;13.18;;;11.88;;
46765;SDS011;32527;51.986;5.842;2023-08-08T00:41:21;17.95;;;12.38;;
46765;SDS011;32527;51.986;5.842;2023-08-08T00:43:48;11.02;;;9.90;;
46765;SDS011;32527;51.986;5.842;2023-08-08T00:46:15;13.52;;;10.77;;
46765;SDS011;32527;51.986;5.842;2023-08-08T00:48:41;13.85;;;9.82;;
46765;SDS011;32527;51.986;5.842;2023-08-08T00:51:08;17.75;;;10.65;;
46765;SDS011;32527;51.986;5.842;2023-08-08T00:53:34;13.05;;;10.60;;
46765;SDS011;32527;51.986;5.842;2023-08-08T00:56:00;14.10;;;10.38;;
46765;SDS011;32527;51.986;5.842;2023-08-08T00:58:26;13.95;;;10.73;;
46765;SDS011;32527;51.986;5.842;2023-08-08T01:00:52;13.32;;;10.45;;
46765;SDS011;32527;51.986;5.842;2023-08-08T01:03:22;13.15;;;11.52;;
46765;SDS011;32527;51.986;5.842;2023-08-08T01:05:51;16.70;;;13.30;;
46765;SDS011;32527;51.986;5.842;2023-08-08T01:08:21;14.98;;;12.32;;
46765;SDS011;32527;51.986;5.842;2023-08-08T01:10:48;13.18;;;11.50;;
46765;SDS011;32527;51.986;5.842;2023-08-08T01:13:18;13.30;;;11.95;;
46765;SDS011;32527;51.986;5.842;2023-08-08T01:15:46;13.80;;;10.02;;
46765;SDS011;32527;51.986;5.842;2023-08-08T01:18:13;14.73;;;10.38;;
46765;SDS011;32527;51.986;5.842;2023-08-08T01:20:40;10.82;;;9.43;;
46765;SDS011;32527;51.986;5.842;2023-08-08T01:23:12;15.90;;;10.57;;
46765;SDS011;32527;51.986;5.842;2023-08-08T01:25:39;14.98;;;9.55;;
46765;SDS011;32527;51.986;5.842;2023-08-08T01:28:05;14.10;;;12.35;;
46765;SDS011;32527;51.986;5.842;2023-08-08T01:30:32;12.10;;;9.50;;
46765;SDS011;32527;51.986;5.842;2023-08-08T01:32:59;15.18;;;12.65;;
46765;SDS011;32527;51.986;5.842;2023-08-08T01:35:28;18.58;;;10.52;;
46765;SDS011;32527;51.986;5.842;2023-08-08T01:38:16;16.40;;;10.98;;
46765;SDS011;32527;51.986;5.842;2023-08-08T01:40:43;13.90;;;9.55;;
46765;SDS011;32527;51.986;5.842;2023-08-08T01:43:10;12.35;;;11.18;;
46765;SDS011;32527;51.986;5.842;2023-08-08T01:45:37;12.55;;;10.93;;
46765;SDS011;32527;51.986;5.842;2023-08-08T01:48:07;16.58;;;15.35;;
46765;SDS011;32527;51.986;5.842;2023-08-08T01:50:34;18.00;;;16.70;;
46765;SDS011;32527;51.986;5.842;2023-08-08T01:53:00;16.85;;;15.88;;
46765;SDS011;32527;51.986;5.842;2023-08-08T01:55:26;15.32;;;14.30;;
46765;SDS011;32527;51.986;5.842;2023-08-08T01:57:52;19.35;;;17.77;;
46765;SDS011;32527;51.986;5.842;2023-08-08T02:00:18;16.08;;;15.02;;
46765;SDS011;32527;51.986;5.842;2023-08-08T02:02:44;17.88;;;16.52;;
46765;SDS011;32527;51.986;5.842;2023-08-08T02:05:10;18.48;;;17.17;;
46765;SDS011;32527;51.986;5.842;2023-08-08T02:07:37;16.52;;;15.45;;
46765;SDS011;32527;51.986;5.842;2023-08-08T02:10:03;17.17;;;15.68;;
46765;SDS011;32527;51.986;5.842;2023-08-08T02:12:30;19.23;;;18.10;;
46765;SDS011;32527;51.986;5.842;2023-08-08T02:14:57;15.98;;;14.98;;
46765;SDS011;32527;51.986;5.842;2023-08-08T02:17:24;17.15;;;15.90;;
46765;SDS011;32527;51.986;5.842;2023-08-08T02:19:50;14.77;;;13.55;;
46765;SDS011;32527;51.986;5.842;2023-08-08T02:22:17;16.13;;;15.15;;
46765;SDS011;32527;51.986;5.842;2023-08-08T02:24:43;15.35;;;14.10;;
46765;SDS011;32527;51.986;5.842;2023-08-08T02:27:09;16.67;;;15.50;;
46765;SDS011;32527;51.986;5.842;2023-08-08T02:29:35;18.85;;;17.23;;
46765;SDS011;32527;51.986;5.842;2023-08-08T02:32:01;16.05;;;14.77;;
46765;SDS011;32527;51.986;5.842;2023-08-08T02:34:27;16.75;;;15.77;;
46765;SDS011;32527;51.986;5.842;2023-08-08T02:36:55;16.25;;;15.05;;
46765;SDS011;32527;51.986;5.842;2023-08-08T02:39:21;18.75;;;17.63;;
46765;SDS011;32527;51.986;5.842;2023-08-08T02:41:47;16.92;;;15.82;;
46765;SDS011;32527;51.986;5.842;2023-08-08T02:44:14;17.17;;;16.05;;
46765;SDS011;32527;51.986;5.842;2023-08-08T02:46:40;18.08;;;17.05;;
46765;SDS011;32527;51.986;5.842;2023-08-08T02:49:06;17.02;;;15.98;;
46765;SDS011;32527;51.986;5.842;2023-08-08T02:51:32;15.50;;;14.52;;
46765;SDS011;32527;51.986;5.842;2023-08-08T02:53:58;16.20;;;15.30;;
46765;SDS011;32527;51.986;5.842;2023-08-08T02:56:26;18.25;;;17.13;;
46765;SDS011;32527;51.986;5.842;2023-08-08T02:58:52;16.02;;;14.93;;
46765;SDS011;32527;51.986;5.842;2023-08-08T03:01:19;17.70;;;16.48;;
46765;SDS011;32527;51.986;5.842;2023-08-08T03:03:46;16.88;;;15.93;;
46765;SDS011;32527;51.986;5.842;2023-08-08T03:06:13;18.50;;;15.30;;
46765;SDS011;32527;51.986;5.842;2023-08-08T03:08:39;16.25;;;15.10;;
46765;SDS011;32527;51.986;5.842;2023-08-08T03:11:06;15.65;;;14.43;;
46765;SDS011;32527;51.986;5.842;2023-08-08T03:13:32;14.80;;;13.88;;
46765;SDS011;32527;51.986;5.842;2023-08-08T03:15:59;17.52;;;12.68;;
46765;SDS011;32527;51.986;5.842;2023-08-08T03:18:25;15.27;;;13.93;;
46765;SDS011;32527;51.986;5.842;2023-08-08T03:20:52;15.93;;;14.55;;
46765;SDS011;32527;51.986;5.842;2023-08-08T03:23:18;16.38;;;15.05;;
46765;SDS011;32527;51.986;5.842;2023-08-08T03:25:45;15.65;;;14.55;;
46765;SDS011;32527;51.986;5.842;2023-08-08T03:28:13;15.43;;;14.13;;
46765;SDS011;32527;51.986;5.842;2023-08-08T03:30:39;15.05;;;13.85;;
46765;SDS011;32527;51.986;5.842;2023-08-08T03:33:08;18.05;;;16.70;;
46765;SDS011;32527;51.986;5.842;2023-08-08T03:35:34;18.70;;;17.27;;
46765;SDS011;32527;51.986;5.842;2023-08-08T03:38:00;17.92;;;16.60;;
46765;SDS011;32527;51.986;5.842;2023-08-08T03:40:27;23.92;;;17.45;;
46765;SDS011;32527;51.986;5.842;2023-08-08T03:42:54;16.92;;;15.50;;
46765;SDS011;32527;51.986;5.842;2023-08-08T03:45:20;17.40;;;16.25;;
46765;SDS011;32527;51.986;5.842;2023-08-08T03:47:46;18.73;;;17.27;;
46765;SDS011;32527;51.986;5.842;2023-08-08T03:50:12;17.40;;;16.25;;
46765;SDS011;32527;51.986;5.842;2023-08-08T03:52:38;16.42;;;15.32;;
46765;SDS011;32527;51.986;5.842;2023-08-08T03:55:09;21.40;;;15.68;;
46765;SDS011;32527;51.986;5.842;2023-08-08T03:57:36;19.55;;;18.05;;
46765;SDS011;32527;51.986;5.842;2023-08-08T04:00:02;18.38;;;16.88;;
46765;SDS011;32527;51.986;5.842;2023-08-08T04:02:38;18.17;;;16.58;;
46765;SDS011;32527;51.986;5.842;2023-08-08T04:05:04;18.05;;;16.23;;
46765;SDS011;32527;51.986;5.842;2023-08-08T04:07:30;20.08;;;18.10;;
46765;SDS011;32527;51.986;5.842;2023-08-08T04:09:57;18.77;;;17.23;;
46765;SDS011;32527;51.986;5.842;2023-08-08T04:12:23;20.02;;;18.13;;
46765;SDS011;32527;51.986;5.842;2023-08-08T04:14:49;18.83;;;17.40;;
46765;SDS011;32527;51.986;5.842;2023-08-08T04:17:15;26.15;;;19.63;;
46765;SDS011;32527;51.986;5.842;2023-08-08T04:19:41;17.92;;;16.63;;
46765;SDS011;32527;51.986;5.842;2023-08-08T04:22:07;21.40;;;18.48;;
46765;SDS011;32527;51.986;5.842;2023-08-08T04:24:33;19.27;;;17.88;;
46765;SDS011;32527;51.986;5.842;2023-08-08T04:26:59;18.05;;;16.40;;
46765;SDS011;32527;51.986;5.842;2023-08-08T04:29:26;17.38;;;16.20;;
46765;SDS011;32527;51.986;5.842;2023-08-08T04:31:52;20.40;;;18.17;;
46765;SDS011;32527;51.986;5.842;2023-08-08T04:34:18;19.00;;;17.40;;
46765;SDS011;32527;51.986;5.842;2023-08-08T04:36:44;17.10;;;15.40;;
46765;SDS011;32527;51.986;5.842;2023-08-08T04:39:10;18.80;;;17.17;;
46765;SDS011;32527;51.986;5.842;2023-08-08T04:41:36;17.55;;;16.35;;
46765;SDS011;32527;51.986;5.842;2023-08-08T04:44:02;18.55;;;17.13;;
46765;SDS011;32527;51.986;5.842;2023-08-08T04:46:28;17.75;;;16.63;;
46765;SDS011;32527;51.986;5.842;2023-08-08T04:48:54;18.27;;;16.45;;
46765;SDS011;32527;51.986;5.842;2023-08-08T04:51:20;18.17;;;16.80;;
46765;SDS011;32527;51.986;5.842;2023-08-08T04:53:46;17.63;;;16.25;;
46765;SDS011;32527;51.986;5.842;2023-08-08T04:56:12;20.20;;;16.00;;
46765;SDS011;32527;51.986;5.842;2023-08-08T04:58:39;19.25;;;17.77;;
46765;SDS011;32527;51.986;5.842;2023-08-08T05:01:05;20.88;;;18.92;;
46765;SDS011;32527;51.986;5.842;2023-08-08T05:03:33;18.33;;;16.95;;
46765;SDS011;32527;51.986;5.842;2023-08-08T05:05:59;19.20;;;17.90;;
46765;SDS011;32527;51.986;5.842;2023-08-08T05:08:25;18.73;;;17.13;;
46765;SDS011;32527;51.986;5.842;2023-08-08T05:10:51;19.90;;;18.20;;
46765;SDS011;32527;51.986;5.842;2023-08-08T05:13:18;17.98;;;16.77;;
46765;SDS011;32527;51.986;5.842;2023-08-08T05:15:44;18.00;;;16.08;;
46765;SDS011;32527;51.986;5.842;2023-08-08T05:18:10;19.30;;;17.70;;
46765;SDS011;32527;51.986;5.842;2023-08-08T05:20:36;17.52;;;16.33;;
46765;SDS011;32527;51.986;5.842;2023-08-08T05:23:02;17.05;;;15.77;;
46765;SDS011;32527;51.986;5.842;2023-08-08T05:25:28;19.45;;;17.85;;
46765;SDS011;32527;51.986;5.842;2023-08-08T05:27:54;19.17;;;17.77;;
46765;SDS011;32527;51.986;5.842;2023-08-08T05:30:21;18.70;;;17.40;;
46765;SDS011;32527;51.986;5.842;2023-08-08T05:32:47;19.27;;;17.80;;
46765;SDS011;32527;51.986;5.842;2023-08-08T05:35:13;22.60;;;20.70;;
46765;SDS011;32527;51.986;5.842;2023-08-08T05:37:39;21.80;;;19.08;;
46765;SDS011;32527;51.986;5.842;2023-08-08T05:40:05;19.77;;;18.10;;
46765;SDS011;32527;51.986;5.842;2023-08-08T05:42:32;21.45;;;19.30;;
46765;SDS011;32527;51.986;5.842;2023-08-08T05:44:58;21.40;;;18.17;;
46765;SDS011;32527;51.986;5.842;2023-08-08T05:47:24;21.23;;;19.83;;
46765;SDS011;32527;51.986;5.842;2023-08-08T05:49:50;21.05;;;19.17;;
46765;SDS011;32527;51.986;5.842;2023-08-08T05:52:16;22.85;;;21.23;;
46765;SDS011;32527;51.986;5.842;2023-08-08T05:54:42;22.40;;;20.77;;
46765;SDS011;32527;51.986;5.842;2023-08-08T05:57:08;23.05;;;21.42;;
46765;SDS011;32527;51.986;5.842;2023-08-08T05:59:34;22.77;;;21.10;;
46765;SDS011;32527;51.986;5.842;2023-08-08T06:02:00;22.58;;;21.02;;
46765;SDS011;32527;51.986;5.842;2023-08-08T06:04:26;20.38;;;19.17;;
46765;SDS011;32527;51.986;5.842;2023-08-08T06:06:52;20.13;;;18.73;;
46765;SDS011;32527;51.986;5.842;2023-08-08T06:09:19;22.45;;;20.60;;
46765;SDS011;32527;51.986;5.842;2023-08-08T06:11:45;23.50;;;21.30;;
46765;SDS011;32527;51.986;5.842;2023-08-08T06:14:11;25.20;;;23.02;;
46765;SDS011;32527;51.986;5.842;2023-08-08T06:16:37;26.20;;;24.33;;
46765;SDS011;32527;51.986;5.842;2023-08-08T06:19:03;25.15;;;23.55;;
46765;SDS011;32527;51.986;5.842;2023-08-08T06:21:29;24.00;;;22.60;;
46765;SDS011;32527;51.986;5.842;2023-08-08T06:23:55;27.10;;;25.27;;
46765;SDS011;32527;51.986;5.842;2023-08-08T06:26:21;26.35;;;24.85;;
46765;SDS011;32527;51.986;5.842;2023-08-08T06:28:48;26.33;;;24.70;;
46765;SDS011;32527;51.986;5.842;2023-08-08T06:31:14;34.50;;;32.63;;
46765;SDS011;32527;51.986;5.842;2023-08-08T06:33:40;39.50;;;37.35;;
46765;SDS011;32527;51.986;5.842;2023-08-08T06:36:06;44.70;;;42.25;;
46765;SDS011;32527;51.986;5.842;2023-08-08T06:38:32;41.40;;;39.28;;
46765;SDS011;32527;51.986;5.842;2023-08-08T06:41:02;45.40;;;42.65;;
46765;SDS011;32527;51.986;5.842;2023-08-08T06:43:29;48.88;;;46.53;;
46765;SDS011;32527;51.986;5.842;2023-08-08T06:45:55;41.80;;;39.80;;
46765;SDS011;32527;51.986;5.842;2023-08-08T06:48:21;57.35;;;54.60;;
46765;SDS011;32527;51.986;5.842;2023-08-08T06:50:48;58.38;;;55.60;;
46765;SDS011;32527;51.986;5.842;2023-08-08T06:53:14;49.78;;;47.45;;
46765;SDS011;32527;51.986;5.842;2023-08-08T06:55:40;55.58;;;52.78;;
46765;SDS011;32527;51.986;5.842;2023-08-08T06:58:06;51.35;;;48.95;;
46765;SDS011;32527;51.986;5.842;2023-08-08T07:00:32;54.88;;;52.47;;
46765;SDS011;32527;51.986;5.842;2023-08-08T07:02:58;55.22;;;52.25;;
46765;SDS011;32527;51.986;5.842;2023-08-08T07:05:25;53.17;;;50.78;;
46765;SDS011;32527;51.986;5.842;2023-08-08T07:07:51;51.67;;;49.25;;
46765;SDS011;32527;51.986;5.842;2023-08-08T07:10:17;51.40;;;48.95;;
46765;SDS011;32527;51.986;5.842;2023-08-08T07:12:44;45.20;;;43.10;;
46765;SDS011;32527;51.986;5.842;2023-08-08T07:15:10;50.15;;;47.63;;
46765;SDS011;32527;51.986;5.842;2023-08-08T07:17:36;56.00;;;53.45;;
46765;SDS011;32527;51.986;5.842;2023-08-08T07:20:03;48.97;;;46.67;;
46765;SDS011;32527;51.986;5.842;2023-08-08T07:22:30;48.45;;;46.35;;
46765;SDS011;32527;51.986;5.842;2023-08-08T07:24:57;49.95;;;47.60;;
46765;SDS011;32527;51.986;5.842;2023-08-08T07:27:23;45.05;;;43.03;;
46765;SDS011;32527;51.986;5.842;2023-08-08T07:29:49;43.88;;;41.88;;
46765;SDS011;32527;51.986;5.842;2023-08-08T07:32:15;44.95;;;42.75;;
46765;SDS011;32527;51.986;5.842;2023-08-08T07:34:42;44.83;;;42.72;;
46765;SDS011;32527;51.986;5.842;2023-08-08T07:37:08;43.13;;;41.15;;
46765;SDS011;32527;51.986;5.842;2023-08-08T07:39:34;42.25;;;40.35;;
46765;SDS011;32527;51.986;5.842;2023-08-08T07:42:00;39.35;;;37.60;;
46765;SDS011;32527;51.986;5.842;2023-08-08T07:44:26;38.72;;;36.92;;
46765;SDS011;32527;51.986;5.842;2023-08-08T07:46:52;38.30;;;36.50;;
46765;SDS011;32527;51.986;5.842;2023-08-08T07:49:18;29.15;;;27.55;;
46765;SDS011;32527;51.986;5.842;2023-08-08T07:51:44;25.70;;;24.42;;
46765;SDS011;32527;51.986;5.842;2023-08-08T07:54:10;22.65;;;21.55;;
46765;SDS011;32527;51.986;5.842;2023-08-08T07:56:36;27.08;;;25.73;;
46765;SDS011;32527;51.986;5.842;2023-08-08T07:59:02;35.20;;;33.58;;
46765;SDS011;32527;51.986;5.842;2023-08-08T08:01:29;32.92;;;31.38;;
46765;SDS011;32527;51.986;5.842;2023-08-08T08:03:55;32.42;;;30.92;;
46765;SDS011;32527;51.986;5.842;2023-08-08T08:06:21;31.80;;;30.30;;
46765;SDS011;32527;51.986;5.842;2023-08-08T08:08:47;31.50;;;30.10;;
46765;SDS011;32527;51.986;5.842;2023-08-08T08:11:13;37.05;;;35.15;;
46765;SDS011;32527;51.986;5.842;2023-08-08T08:13:41;38.78;;;36.95;;
46765;SDS011;32527;51.986;5.842;2023-08-08T08:16:07;43.25;;;41.25;;
46765;SDS011;32527;51.986;5.842;2023-08-08T08:18:33;38.47;;;36.20;;
46765;SDS011;32527;51.986;5.842;2023-08-08T08:21:00;39.97;;;38.00;;
46765;SDS011;32527;51.986;5.842;2023-08-08T08:23:26;38.97;;;36.97;;
46765;SDS011;32527;51.986;5.842;2023-08-08T08:25:53;40.70;;;38.75;;
46765;SDS011;32527;51.986;5.842;2023-08-08T08:28:20;38.60;;;36.80;;
46765;SDS011;32527;51.986;5.842;2023-08-08T08:30:47;35.55;;;33.95;;
46765;SDS011;32527;51.986;5.842;2023-08-08T08:33:14;40.00;;;38.05;;
46765;SDS011;32527;51.986;5.842;2023-08-08T08:35:40;36.67;;;34.92;;
46765;SDS011;32527;51.986;5.842;2023-08-08T08:38:06;35.65;;;34.03;;
46765;SDS011;32527;51.986;5.842;2023-08-08T08:40:34;32.75;;;31.27;;
46765;SDS011;32527;51.986;5.842;2023-08-08T08:43:01;36.00;;;34.40;;
46765;SDS011;32527;51.986;5.842;2023-08-08T08:45:28;33.60;;;32.00;;
46765;SDS011;32527;51.986;5.842;2023-08-08T08:47:55;31.98;;;30.52;;
46765;SDS011;32527;51.986;5.842;2023-08-08T08:50:26;33.67;;;32.17;;
46765;SDS011;32527;51.986;5.842;2023-08-08T08:52:53;34.40;;;32.80;;
46765;SDS011;32527;51.986;5.842;2023-08-08T08:55:21;29.60;;;28.10;;
46765;SDS011;32527;51.986;5.842;2023-08-08T08:57:48;26.23;;;24.85;;
46765;SDS011;32527;51.986;5.842;2023-08-08T09:00:15;28.13;;;26.83;;
46765;SDS011;32527;51.986;5.842;2023-08-08T09:02:41;23.48;;;22.33;;
46765;SDS011;32527;51.986;5.842;2023-08-08T09:05:07;23.60;;;22.48;;
46765;SDS011;32527;51.986;5.842;2023-08-08T09:07:33;19.92;;;18.92;;
46765;SDS011;32527;51.986;5.842;2023-08-08T09:10:00;23.33;;;22.13;;
46765;SDS011;32527;51.986;5.842;2023-08-08T09:12:26;19.80;;;18.80;;
46765;SDS011;32527;51.986;5.842;2023-08-08T09:14:56;25.33;;;24.02;;
46765;SDS011;32527;51.986;5.842;2023-08-08T09:17:22;20.10;;;19.10;;
46765;SDS011;32527;51.986;5.842;2023-08-08T09:19:52;19.13;;;18.13;;
46765;SDS011;32527;51.986;5.842;2023-08-08T09:22:18;23.83;;;22.38;;
46765;SDS011;32527;51.986;5.842;2023-08-08T09:24:44;21.15;;;19.90;;
46765;SDS011;32527;51.986;5.842;2023-08-08T09:27:11;20.20;;;19.20;;
46765;SDS011;32527;51.986;5.842;2023-08-08T09:29:38;25.30;;;23.85;;
46765;SDS011;32527;51.986;5.842;2023-08-08T09:32:07;28.65;;;27.27;;
46765;SDS011;32527;51.986;5.842;2023-08-08T09:34:34;27.17;;;25.88;;
46765;SDS011;32527;51.986;5.842;2023-08-08T09:37:00;26.88;;;25.63;;
46765;SDS011;32527;51.986;5.842;2023-08-08T09:39:28;38.35;;;36.58;;
46765;SDS011;32527;51.986;5.842;2023-08-08T09:41:55;34.97;;;33.38;;
46765;SDS011;32527;51.986;5.842;2023-08-08T09:44:24;30.45;;;29.00;;
46765;SDS011;32527;51.986;5.842;2023-08-08T09:46:52;25.70;;;24.40;;
46765;SDS011;32527;51.986;5.842;2023-08-08T09:49:18;38.72;;;36.78;;
46765;SDS011;32527;51.986;5.842;2023-08-08T09:51:45;33.83;;;32.10;;
46765;SDS011;32527;51.986;5.842;2023-08-08T09:54:12;26.52;;;25.33;;
46765;SDS011;32527;51.986;5.842;2023-08-08T09:56:39;31.67;;;29.88;;
46765;SDS011;32527;51.986;5.842;2023-08-08T09:59:05;32.70;;;31.20;;
46765;SDS011;32527;51.986;5.842;2023-08-08T10:01:32;37.08;;;35.38;;
46765;SDS011;32527;51.986;5.842;2023-08-08T10:03:58;34.20;;;32.60;;
46765;SDS011;32527;51.986;5.842;2023-08-08T10:06:26;37.65;;;35.92;;
46765;SDS011;32527;51.986;5.842;2023-08-08T10:08:52;44.80;;;42.78;;
46765;SDS011;32527;51.986;5.842;2023-08-08T10:11:18;29.50;;;28.05;;
46765;SDS011;32527;51.986;5.842;2023-08-08T10:13:50;34.13;;;32.53;;
46765;SDS011;32527;51.986;5.842;2023-08-08T10:16:19;49.70;;;47.45;;
46765;SDS011;32527;51.986;5.842;2023-08-08T10:18:46;46.00;;;43.85;;
46765;SDS011;32527;51.986;5.842;2023-08-08T10:21:12;54.22;;;51.85;;
46765;SDS011;32527;51.986;5.842;2023-08-08T10:23:38;56.45;;;53.78;;
46765;SDS011;32527;51.986;5.842;2023-08-08T10:26:06;65.75;;;62.78;;
46765;SDS011;32527;51.986;5.842;2023-08-08T10:28:51;47.40;;;45.25;;
46765;SDS011;32527;51.986;5.842;2023-08-08T10:31:19;55.42;;;52.92;;
46765;SDS011;32527;51.986;5.842;2023-08-08T10:33:46;69.07;;;65.85;;
46765;SDS011;32527;51.986;5.842;2023-08-08T10:36:12;57.50;;;54.92;;
46765;SDS011;32527;51.986;5.842;2023-08-08T10:38:47;61.35;;;58.55;;
46765;SDS011;32527;51.986;5.842;2023-08-08T10:41:16;56.17;;;53.45;;
46765;SDS011;32527;51.986;5.842;2023-08-08T10:43:53;46.35;;;44.20;;
46765;SDS011;32527;51.986;5.842;2023-08-08T10:46:30;48.20;;;45.97;;
46765;SDS011;32527;51.986;5.842;2023-08-08T10:48:57;47.72;;;45.53;;
46765;SDS011;32527;51.986;5.842;2023-08-08T10:54:02;41.95;;;40.00;;
46765;SDS011;32527;51.986;5.842;2023-08-08T10:56:28;52.38;;;49.90;;
46765;SDS011;32527;51.986;5.842;2023-08-08T10:58:56;50.95;;;48.60;;
46765;SDS011;32527;51.986;5.842;2023-08-08T11:01:25;59.80;;;56.35;;
46765;SDS011;32527;51.986;5.842;2023-08-08T11:03:51;60.35;;;57.65;;
46765;SDS011;32527;51.986;5.842;2023-08-08T11:06:18;49.15;;;46.88;;
46765;SDS011;32527;51.986;5.842;2023-08-08T11:08:44;55.22;;;52.55;;
46765;SDS011;32527;51.986;5.842;2023-08-08T11:11:10;71.47;;;68.13;;
46765;SDS011;32527;51.986;5.842;2023-08-08T11:13:37;69.07;;;65.88;;
46765;SDS011;32527;51.986;5.842;2023-08-08T11:16:03;58.33;;;55.60;;
46765;SDS011;32527;51.986;5.842;2023-08-08T11:18:29;62.72;;;59.83;;
46765;SDS011;32527;51.986;5.842;2023-08-08T11:20:55;64.75;;;61.80;;
46765;SDS011;32527;51.986;5.842;2023-08-08T11:23:21;70.35;;;67.20;;
46765;SDS011;32527;51.986;5.842;2023-08-08T11:25:47;67.75;;;64.57;;
46765;SDS011;32527;51.986;5.842;2023-08-08T11:28:14;72.25;;;69.00;;
46765;SDS011;32527;51.986;5.842;2023-08-08T11:30:42;67.28;;;64.07;;
46765;SDS011;32527;51.986;5.842;2023-08-08T11:33:08;78.28;;;74.90;;
46765;SDS011;32527;51.986;5.842;2023-08-08T11:35:36;82.20;;;78.45;;
46765;SDS011;32527;51.986;5.842;2023-08-08T11:38:03;85.22;;;81.50;;
46765;SDS011;32527;51.986;5.842;2023-08-08T11:40:33;84.53;;;80.70;;
46765;SDS011;32527;51.986;5.842;2023-08-08T11:42:59;89.60;;;85.72;;
46765;SDS011;32527;51.986;5.842;2023-08-08T11:45:26;83.82;;;80.03;;
46765;SDS011;32527;51.986;5.842;2023-08-08T11:47:52;81.00;;;77.47;;
46765;SDS011;32527;51.986;5.842;2023-08-08T11:50:19;95.45;;;91.00;;
46765;SDS011;32527;51.986;5.842;2023-08-08T11:52:48;82.75;;;79.00;;
46765;SDS011;32527;51.986;5.842;2023-08-08T11:55:14;86.60;;;82.72;;
46765;SDS011;32527;51.986;5.842;2023-08-08T11:57:40;61.00;;;58.20;;
46765;SDS011;32527;51.986;5.842;2023-08-08T12:00:07;70.47;;;67.28;;
46765;SDS011;32527;51.986;5.842;2023-08-08T12:02:38;64.57;;;61.70;;
46765;SDS011;32527;51.986;5.842;2023-08-08T12:05:14;73.20;;;69.90;;
46765;SDS011;32527;51.986;5.842;2023-08-08T12:07:46;79.65;;;76.00;;
46765;SDS011;32527;51.986;5.842;2023-08-08T12:10:17;75.72;;;72.38;;
46765;SDS011;32527;51.986;5.842;2023-08-08T12:12:52;74.10;;;70.80;;
46765;SDS011;32527;51.986;5.842;2023-08-08T12:15:19;68.95;;;65.88;;
46765;SDS011;32527;51.986;5.842;2023-08-08T12:17:46;76.97;;;73.63;;
46765;SDS011;32527;51.986;5.842;2023-08-08T12:20:12;74.22;;;70.93;;
46765;SDS011;32527;51.986;5.842;2023-08-08T12:22:40;85.78;;;82.03;;
46765;SDS011;32527;51.986;5.842;2023-08-08T12:25:06;74.35;;;71.00;;
46765;SDS011;32527;51.986;5.842;2023-08-08T12:27:33;76.55;;;73.18;;
46765;SDS011;32527;51.986;5.842;2023-08-08T12:29:59;77.60;;;74.07;;
46765;SDS011;32527;51.986;5.842;2023-08-08T12:32:26;88.68;;;84.35;;
46765;SDS011;32527;51.986;5.842;2023-08-08T12:34:53;94.22;;;90.03;;
46765;SDS011;32527;51.986;5.842;2023-08-08T12:37:19;82.20;;;78.63;;
46765;SDS011;32527;51.986;5.842;2023-08-08T12:39:45;94.30;;;90.15;;
46765;SDS011;32527;51.986;5.842;2023-08-08T12:42:11;84.20;;;80.43;;
46765;SDS011;32527;51.986;5.842;2023-08-08T12:44:37;85.22;;;81.32;;
46765;SDS011;32527;51.986;5.842;2023-08-08T12:47:04;82.03;;;78.43;;
46765;SDS011;32527;51.986;5.842;2023-08-08T12:49:30;93.72;;;89.60;;
46765;SDS011;32527;51.986;5.842;2023-08-08T12:51:56;91.70;;;87.70;;
46765;SDS011;32527;51.986;5.842;2023-08-08T12:54:22;87.82;;;83.93;;
46765;SDS011;32527;51.986;5.842;2023-08-08T12:56:48;82.60;;;78.88;;
46765;SDS011;32527;51.986;5.842;2023-08-08T12:59:14;83.13;;;79.38;;
46765;SDS011;32527;51.986;5.842;2023-08-08T13:01:40;88.53;;;84.60;;
46765;SDS011;32527;51.986;5.842;2023-08-08T13:04:06;86.53;;;82.72;;
46765;SDS011;32527;51.986;5.842;2023-08-08T13:06:32;92.55;;;88.28;;
46765;SDS011;32527;51.986;5.842;2023-08-08T13:08:59;93.32;;;88.95;;
46765;SDS011;32527;51.986;5.842;2023-08-08T13:11:25;95.32;;;91.07;;
46765;SDS011;32527;51.986;5.842;2023-08-08T13:13:51;95.93;;;91.68;;
46765;SDS011;32527;51.986;5.842;2023-08-08T13:16:18;105.30;;;100.78;;
46765;SDS011;32527;51.986;5.842;2023-08-08T13:18:44;99.28;;;94.97;;
46765;SDS011;32527;51.986;5.842;2023-08-08T13:21:10;99.95;;;95.63;;
46765;SDS011;32527;51.986;5.842;2023-08-08T13:23:37;96.70;;;92.30;;
46765;SDS011;32527;51.986;5.842;2023-08-08T13:26:03;92.38;;;88.32;;
46765;SDS011;32527;51.986;5.842;2023-08-08T13:28:30;92.75;;;88.63;;
46765;SDS011;32527;51.986;5.842;2023-08-08T13:30:56;92.55;;;88.50;;
46765;SDS011;32527;51.986;5.842;2023-08-08T13:33:22;93.68;;;89.68;;
46765;SDS011;32527;51.986;5.842;2023-08-08T13:35:48;97.25;;;92.70;;
46765;SDS011;32527;51.986;5.842;2023-08-08T13:38:14;97.70;;;93.47;;
46765;SDS011;32527;51.986;5.842;2023-08-08T13:40:43;96.72;;;92.50;;
46765;SDS011;32527;51.986;5.842;2023-08-08T13:43:09;96.55;;;92.35;;
46765;SDS011;32527;51.986;5.842;2023-08-08T13:45:35;102.35;;;97.78;;
46765;SDS011;32527;51.986;5.842;2023-08-08T13:48:01;102.55;;;97.95;;
46765;SDS011;32527;51.986;5.842;2023-08-08T13:50:27;102.40;;;98.03;;
46765;SDS011;32527;51.986;5.842;2023-08-08T13:52:54;103.32;;;98.85;;
46765;SDS011;32527;51.986;5.842;2023-08-08T13:55:20;108.85;;;103.95;;
46765;SDS011;32527;51.986;5.842;2023-08-08T13:57:46;100.93;;;96.45;;
46765;SDS011;32527;51.986;5.842;2023-08-08T14:00:12;96.88;;;92.53;;
46765;SDS011;32527;51.986;5.842;2023-08-08T14:02:39;87.03;;;83.18;;
46765;SDS011;32527;51.986;5.842;2023-08-08T14:05:06;97.15;;;92.68;;
46765;SDS011;32527;51.986;5.842;2023-08-08T14:07:32;114.38;;;109.15;;
46765;SDS011;32527;51.986;5.842;2023-08-08T14:09:58;98.60;;;94.30;;
46765;SDS011;32527;51.986;5.842;2023-08-08T14:12:24;100.43;;;96.10;;
46765;SDS011;32527;51.986;5.842;2023-08-08T14:14:50;90.18;;;86.10;;
46765;SDS011;32527;51.986;5.842;2023-08-08T14:17:16;97.00;;;92.80;;
46765;SDS011;32527;51.986;5.842;2023-08-08T14:19:43;94.97;;;90.85;;
46765;SDS011;32527;51.986;5.842;2023-08-08T14:22:09;102.88;;;98.40;;